Time;durP1;ratioP1;P1;durP2;ratioP2;P2;SDS_P1;SDS_P2;PMS_P1;PMS_P2;Temp;Humidity;BMP_temperature;BMP_pressure;BME280_temperature;BME280_humidity;BME280_pressure;Samples;Min_cycle;Max_cycle;Signal;HPM_P1;HPM_P2
2023/05/02 00:00:46;;;;;;;20.38;6.28;;;;;;;9.59;55.13;100585.38;4938268;28;20150;-57
2023/05/02 00:03:17;;;;;;;12.55;6.47;;;;;;;9.67;57.50;100586.16;4921617;28;20136;-56
2023/05/02 00:05:49;;;;;;;16.63;6.60;;;;;;;9.82;56.59;100577.34;4918477;28;20052;-56
2023/05/02 00:08:20;;;;;;;13.02;5.70;;;;;;;9.98;57.32;100584.16;4913875;28;20057;-56
2023/05/02 00:10:51;;;;;;;9.68;5.10;;;;;;;10.18;56.83;100586.59;4934327;28;20059;-56
2023/05/02 00:13:22;;;;;;;10.57;5.63;;;;;;;10.28;56.55;100577.84;4934620;28;20163;-56
2023/05/02 00:15:54;;;;;;;15.88;5.13;;;;;;;10.37;56.41;100579.47;4935728;28;20054;-58
2023/05/02 00:18:25;;;;;;;16.77;5.43;;;;;;;10.48;56.06;100568.91;4935258;28;20399;-57
2023/05/02 00:20:59;;;;;;;16.30;4.78;;;;;;;10.58;55.49;100566.19;4936326;28;20078;-56
2023/05/02 00:23:30;;;;;;;11.55;4.00;;;;;;;10.60;53.86;100568.78;4919382;28;20438;-54
2023/05/02 00:26:01;;;;;;;9.80;3.53;;;;;;;10.60;54.27;100571.38;4936205;28;20052;-57
2023/05/02 00:28:32;;;;;;;6.97;3.42;;;;;;;10.56;53.55;100564.47;4938824;28;20131;-57
2023/05/02 00:31:05;;;;;;;10.25;3.80;;;;;;;10.69;54.21;100553.00;4943228;28;20052;-58
2023/05/02 00:33:36;;;;;;;5.82;3.10;;;;;;;10.76;54.05;100554.66;4941829;28;20603;-58
2023/05/02 00:36:15;;;;;;;9.13;3.30;;;;;;;10.84;53.19;100558.91;4941630;28;20098;-56
2023/05/02 00:38:49;;;;;;;5.75;3.30;;;;;;;10.84;53.97;100556.31;4932772;28;20047;-57
2023/05/02 00:41:22;;;;;;;9.20;3.15;;;;;;;11.09;54.42;100555.09;4934843;28;20041;-59
2023/05/02 00:43:56;;;;;;;14.13;3.58;;;;;;;11.15;52.08;100557.59;4943039;28;20187;-57
2023/05/02 00:46:30;;;;;;;16.90;3.25;;;;;;;11.04;51.94;100541.22;4942709;28;20051;-57
2023/05/02 00:49:04;;;;;;;9.43;3.40;;;;;;;11.14;52.97;100558.50;4933597;28;21196;-58
2023/05/02 00:51:40;;;;;;;10.07;3.13;;;;;;;11.18;52.91;100557.59;4928211;28;20051;-58
2023/05/02 00:54:13;;;;;;;7.43;2.80;;;;;;;11.34;53.32;100552.13;4919332;28;20043;-58
2023/05/02 00:56:45;;;;;;;7.10;3.00;;;;;;;11.56;54.42;100552.66;4927324;28;20048;-59
2023/05/02 00:59:16;;;;;;;9.85;3.53;;;;;;;11.70;53.42;100549.81;4929329;28;20107;-58
2023/05/02 01:02:01;;;;;;;8.65;3.30;;;;;;;11.64;53.10;100554.25;4927713;28;20047;-58
2023/05/02 01:04:40;;;;;;;10.80;3.00;;;;;;;11.50;53.38;100521.34;4910705;28;20140;-57
2023/05/02 01:07:44;;;;;;;12.85;3.55;;;;;;;11.72;53.65;100541.03;4919346;28;20053;-58
2023/05/02 01:10:24;;;;;;;6.60;3.20;;;;;;;11.78;52.66;100542.69;4917114;28;20075;-56
2023/05/02 01:13:01;;;;;;;8.07;4.10;;;;;;;11.81;53.87;100542.66;4931200;28;20614;-58
2023/05/02 01:15:33;;;;;;;8.23;3.25;;;;;;;11.52;53.08;100456.75;4918990;28;20058;-56
2023/05/02 01:18:05;;;;;;;11.32;3.35;;;;;;;12.17;52.98;100535.06;4927704;28;20056;-59
2023/05/02 01:20:40;;;;;;;12.30;3.17;;;;;;;11.77;51.42;100467.66;4928282;28;20051;-57
2023/05/02 01:23:23;;;;;;;8.65;3.78;;;;;;;12.08;52.98;100505.53;4920011;28;20079;-56
2023/05/02 01:26:10;;;;;;;10.75;4.25;;;;;;;12.15;52.91;100505.41;4916835;28;20048;-56
2023/05/02 01:29:00;;;;;;;11.27;3.60;;;;;;;12.22;52.26;100501.78;4932481;28;20981;-56
2023/05/02 01:31:35;;;;;;;15.02;3.70;;;;;;;12.14;53.17;100467.00;4914803;28;20761;-57
2023/05/02 01:34:10;;;;;;;10.73;3.17;;;;;;;12.41;52.84;100487.44;4926317;28;20751;-57
2023/05/02 01:36:45;;;;;;;6.95;2.70;;;;;;;12.51;52.64;100483.72;4919542;28;20057;-56
2023/05/02 01:39:19;;;;;;;8.32;3.33;;;;;;;12.70;52.44;100491.19;4927386;28;20096;-57
2023/05/02 01:41:52;;;;;;;8.75;3.30;;;;;;;12.65;51.58;100469.44;4916475;28;20668;-58
2023/05/02 01:44:26;;;;;;;12.90;3.42;;;;;;;12.94;51.00;100482.78;4943979;28;20067;-56
2023/05/02 01:46:58;;;;;;;8.25;2.80;;;;;;;12.84;50.04;100455.03;4941677;28;20055;-56
2023/05/02 01:49:32;;;;;;;9.50;3.03;;;;;;;13.07;51.03;100461.50;4940920;28;20055;-57
2023/05/02 01:52:06;;;;;;;6.53;2.90;;;;;;;13.22;50.17;100469.00;4931246;28;20051;-56
2023/05/02 01:54:38;;;;;;;8.82;3.42;;;;;;;13.30;50.55;100464.47;4926029;28;20048;-58
2023/05/02 01:57:12;;;;;;;8.35;2.85;;;;;;;13.13;49.51;100437.78;4946515;28;20627;-58
2023/05/02 01:59:46;;;;;;;9.55;3.30;;;;;;;13.37;49.56;100466.03;4911705;28;20057;-57
2023/05/02 02:02:18;;;;;;;8.13;2.63;;;;;;;13.47;49.08;100457.94;4937169;28;20113;-57
2023/05/02 02:04:50;;;;;;;7.72;3.13;;;;;;;13.59;49.13;100452.38;4941903;27;20109;-57
2023/05/02 02:07:21;;;;;;;11.52;3.72;;;;;;;13.66;48.90;100460.97;4931894;28;20046;-57
2023/05/02 02:09:52;;;;;;;10.45;3.70;;;;;;;13.68;48.71;100454.78;4941157;28;20492;-56
2023/05/02 02:12:27;;;;;;;7.88;3.00;;;;;;;13.90;49.13;100454.19;4942390;28;20048;-59
2023/05/02 02:15:04;;;;;;;9.73;3.25;;;;;;;14.14;48.06;100443.03;4940208;28;20055;-56
2023/05/02 02:17:40;;;;;;;4.55;2.53;;;;;;;14.32;47.33;100446.03;4920728;28;20044;-58
2023/05/02 02:20:12;;;;;;;5.97;2.88;;;;;;;14.46;47.55;100449.13;4930248;28;20803;-58
2023/05/02 02:22:46;;;;;;;5.40;2.35;;;;;;;14.56;46.45;100450.59;4936745;28;20048;-55
2023/05/02 02:25:18;;;;;;;10.52;3.10;;;;;;;14.55;46.68;100433.13;4936726;28;20048;-57
2023/05/02 02:27:49;;;;;;;8.77;3.57;;;;;;;14.60;47.06;100436.47;4925728;28;20444;-58
2023/05/02 02:30:21;;;;;;;9.20;2.43;;;;;;;14.69;48.01;100439.72;4942909;28;21081;-58
2023/05/02 02:32:52;;;;;;;14.63;3.30;;;;;;;14.66;47.27;100436.28;4945952;28;20778;-58
2023/05/02 02:35:23;;;;;;;13.33;3.60;;;;;;;14.75;47.05;100429.00;4930513;28;20317;-58
2023/05/02 02:38:03;;;;;;;6.43;2.55;;;;;;;14.60;47.22;100420.69;4931417;28;20343;-58
2023/05/02 02:40:35;;;;;;;;;;;;;;;14.60;46.34;100404.91;4920824;28;20055;-57
2023/05/02 02:43:13;;;;;;;7.85;3.03;;;;;;;14.61;46.99;100425.03;4927484;28;19924;-57
2023/05/02 02:45:56;;;;;;;5.50;2.63;;;;;;;14.69;47.45;100430.06;4922091;28;20051;-56
2023/05/02 02:48:33;;;;;;;10.33;3.00;;;;;;;14.76;48.02;100426.34;4920856;28;20147;-57
2023/05/02 02:51:14;;;;;;;12.00;2.97;;;;;;;14.69;48.51;100392.38;4920189;28;20282;-56
2023/05/02 02:53:54;;;;;;;10.00;2.30;;;;;;;14.76;48.12;100391.28;4920439;28;20289;-56
2023/05/02 02:56:29;;;;;;;9.20;3.00;;;;;;;14.81;46.03;100386.72;4932208;28;20285;-57
2023/05/02 02:59:06;;;;;;;12.83;3.47;;;;;;;14.99;46.95;100420.34;4926651;28;20389;-58
2023/05/02 03:01:42;;;;;;;10.77;2.70;;;;;;;15.11;47.77;100408.56;4928011;28;20278;-58
2023/05/02 03:04:16;;;;;;;7.67;2.90;;;;;;;15.17;47.53;100415.38;4915636;28;20292;-57
2023/05/02 03:06:47;;;;;;;10.73;2.80;;;;;;;15.15;46.37;100414.56;4929856;28;20282;-56
2023/05/02 03:09:18;;;;;;;10.47;2.90;;;;;;;15.37;48.26;100407.69;4918460;28;20283;-56
2023/05/02 03:11:49;;;;;;;5.77;2.37;;;;;;;15.50;46.84;100406.38;4911098;28;22221;-56
2023/05/02 03:14:19;;;;;;;7.10;2.97;;;;;;;15.52;44.40;100417.72;4902900;28;20330;-56
2023/05/02 03:16:52;;;;;;;7.27;2.60;;;;;;;15.40;44.36;100407.59;4905960;28;20275;-58
2023/05/02 03:19:23;;;;;;;6.77;2.53;;;;;;;15.39;44.25;100399.75;4913364;28;20291;-53
2023/05/02 03:21:53;;;;;;;8.07;2.57;;;;;;;15.40;44.18;100397.06;4900390;28;20272;-58
2023/05/02 03:24:26;;;;;;;7.27;2.87;;;;;;;15.57;44.27;100387.72;4897533;28;20286;-58
2023/05/02 03:26:57;;;;;;;14.63;2.83;;;;;;;15.78;42.35;100386.13;4895796;28;20327;-52
2023/05/02 03:29:29;;;;;;;8.00;3.57;;;;;;;15.86;42.55;100387.56;4921727;28;20311;-57
2023/05/02 03:32:01;;;;;;;5.87;2.97;;;;;;;16.06;41.68;100389.47;4896518;28;20280;-55
2023/05/02 03:34:31;;;;;;;11.50;3.00;;;;;;;16.25;43.27;100378.22;4885607;28;20276;-57
2023/05/02 03:37:02;;;;;;;3.80;2.23;;;;;;;16.20;37.10;100383.69;4920729;28;20699;-57
2023/05/02 03:39:32;;;;;;;5.93;2.20;;;;;;;15.91;37.11;100351.38;4934194;28;20287;-58
2023/05/02 03:42:03;;;;;;;4.33;2.50;;;;;;;16.23;40.66;100383.56;4921040;28;20313;-54
2023/05/02 03:44:33;;;;;;;6.03;2.53;;;;;;;16.30;38.65;100386.81;4915232;28;20301;-52
2023/05/02 03:47:06;;;;;;;6.73;2.77;;;;;;;16.16;38.30;100382.09;4924814;28;20286;-53
2023/05/02 03:49:36;;;;;;;5.67;2.53;;;;;;;16.00;40.88;100359.84;4948812;28;20306;-56
2023/05/02 03:52:07;;;;;;;9.30;2.40;;;;;;;16.23;38.50;100391.47;4948616;28;20285;-57
2023/05/02 03:54:37;;;;;;;6.60;2.33;;;;;;;16.12;40.81;100376.03;4937344;28;20273;-57
2023/05/02 03:57:08;;;;;;;4.07;2.33;;;;;;;16.26;43.29;100386.09;4934579;28;20282;-55
2023/05/02 03:59:40;;;;;;;7.17;2.80;;;;;;;16.49;42.25;100394.91;4948963;28;20626;-56
2023/05/02 04:02:12;;;;;;;6.67;2.47;;;;;;;16.49;42.20;100394.91;4941467;28;20430;-56
2023/05/02 04:04:46;;;;;;;14.73;3.23;;;;;;;16.48;42.18;100380.00;4939151;28;20755;-56
2023/05/02 04:07:18;;;;;;;8.37;2.53;;;;;;;16.55;42.65;100392.03;4948642;28;21217;-57
2023/05/02 04:09:48;;;;;;;8.27;2.17;;;;;;;16.55;34.43;100399.94;4938075;28;20289;-56
2023/05/02 04:12:19;;;;;;;4.37;1.80;;;;;;;16.53;34.14;100407.06;4929307;28;20606;-56
2023/05/02 04:14:49;;;;;;;5.07;1.67;;;;;;;16.30;33.94;100379.78;4926578;28;20928;-55
2023/05/02 04:17:22;;;;;;;4.57;1.80;;;;;;;16.21;32.77;100401.22;4939988;28;20282;-57
2023/05/02 04:19:53;;;;;;;4.77;1.97;;;;;;;16.12;33.77;100391.00;4930498;28;20290;-57
2023/05/02 04:22:23;;;;;;;5.77;2.10;;;;;;;16.01;33.28;100406.38;4912277;28;20625;-56
2023/05/02 04:24:55;;;;;;;5.30;1.60;;;;;;;15.99;32.34;100411.69;4910339;28;20275;-57
2023/05/02 04:27:25;;;;;;;5.20;1.80;;;;;;;15.96;32.16;100407.41;4908500;28;20362;-58
2023/05/02 04:29:56;;;;;;;2.20;1.43;;;;;;;15.96;32.92;100412.66;4891460;28;20318;-56
2023/05/02 04:32:29;;;;;;;2.43;1.27;;;;;;;15.90;31.22;100423.44;4914422;28;20783;-56
2023/05/02 04:34:59;;;;;;;3.80;1.57;;;;;;;15.83;32.67;100421.94;4912577;28;20994;-54
2023/05/02 04:37:30;;;;;;;5.47;2.03;;;;;;;15.81;34.04;100422.91;4917761;28;20291;-55
2023/05/02 04:40:00;;;;;;;3.33;1.70;;;;;;;15.74;32.50;100406.44;4913842;28;20260;-56
2023/05/02 04:42:33;;;;;;;2.37;1.57;;;;;;;15.72;33.37;100413.53;4910029;28;20271;-56
2023/05/02 04:45:04;;;;;;;5.87;2.20;;;;;;;15.51;32.65;100373.84;4910208;28;20289;-56
2023/05/02 04:47:36;;;;;;;4.27;1.80;;;;;;;15.61;33.99;100406.00;4910023;28;20283;-56
2023/05/02 04:50:08;;;;;;;4.67;1.70;;;;;;;15.53;33.72;100387.81;4910596;28;20741;-58
2023/05/02 04:52:39;;;;;;;5.93;2.00;;;;;;;15.33;33.61;100395.56;4910385;28;20286;-56
2023/05/02 04:55:10;;;;;;;5.47;2.20;;;;;;;15.26;33.86;100388.78;4909747;28;20298;-56
2023/05/02 04:57:41;;;;;;;8.03;1.93;;;;;;;15.35;35.12;100383.19;4929926;28;21493;-54
2023/05/02 05:00:13;;;;;;;5.40;1.80;;;;;;;15.58;34.75;100368.38;4930972;28;20289;-57
2023/05/02 05:02:45;;;;;;;7.83;1.90;;;;;;;15.65;34.59;100380.38;4906157;28;20294;-56
2023/05/02 05:05:16;;;;;;;6.33;1.70;;;;;;;15.58;34.04;100378.91;4910925;28;20289;-57
2023/05/02 05:07:46;;;;;;;4.50;1.60;;;;;;;15.70;34.70;100374.09;4914779;28;20757;-58
2023/05/02 05:10:17;;;;;;;6.53;1.90;;;;;;;15.64;35.11;100360.25;4903268;28;20283;-58
2023/05/02 05:12:48;;;;;;;4.20;1.70;;;;;;;15.59;34.70;100370.09;4895281;28;20301;-57
2023/05/02 05:15:19;;;;;;;4.70;2.00;;;;;;;15.53;35.63;100366.75;4895490;28;20286;-57
2023/05/02 05:17:51;;;;;;;6.67;2.20;;;;;;;15.42;36.03;100337.28;4904899;28;20850;-57
2023/05/02 05:20:21;;;;;;;4.00;1.70;;;;;;;15.62;35.10;100354.16;4895389;28;20649;-57
2023/05/02 05:22:52;;;;;;;6.33;1.87;;;;;;;15.60;34.77;100350.72;4895681;28;20702;-57
2023/05/02 05:25:23;;;;;;;4.67;2.00;;;;;;;15.52;35.94;100349.25;4895521;28;20283;-54
2023/05/02 05:27:54;;;;;;;3.17;1.60;;;;;;;15.68;35.81;100356.59;4900683;28;20274;-58
2023/05/02 05:30:25;;;;;;;3.90;2.37;;;;;;;15.76;34.99;100351.94;4901584;28;20291;-56
2023/05/02 05:32:58;;;;;;;7.30;2.30;;;;;;;15.72;34.95;100350.31;4915113;28;20301;-59
2023/05/02 05:35:29;;;;;;;11.73;2.17;;;;;;;15.82;35.63;100343.78;4932642;28;20289;-58
2023/05/02 05:37:59;;;;;;;5.30;2.07;;;;;;;15.70;33.71;100337.22;4922152;28;20341;-57
2023/05/02 05:40:30;;;;;;;5.50;2.13;;;;;;;15.62;32.91;100322.56;4912662;28;20275;-58
2023/05/02 05:43:00;;;;;;;8.67;2.00;;;;;;;15.36;32.58;100332.25;4902889;28;21358;-55
2023/05/02 05:45:30;;;;;;;3.87;2.20;;;;;;;15.30;33.92;100314.03;4917006;28;20291;-57
2023/05/02 05:48:02;;;;;;;8.07;3.47;;;;;;;15.34;34.21;100315.63;4914419;28;20332;-57
2023/05/02 05:50:33;;;;;;;6.83;1.87;;;;;;;15.41;34.78;100309.25;4906145;28;20278;-56
2023/05/02 05:53:04;;;;;;;7.53;2.23;;;;;;;15.39;34.51;100295.28;4932177;28;20277;-57
2023/05/02 05:55:34;;;;;;;4.40;2.00;;;;;;;15.35;33.44;100309.47;4947038;28;20285;-57
2023/05/02 05:58:06;;;;;;;8.97;2.40;;;;;;;15.18;33.59;100290.78;4930903;28;20277;-57
2023/05/02 06:00:37;;;;;;;4.83;1.70;;;;;;;15.21;34.13;100295.94;4928867;28;20297;-58
2023/05/02 06:03:10;;;;;;;8.30;1.90;;;;;;;15.20;32.96;100288.94;4897284;28;20294;-57
2023/05/02 06:05:41;;;;;;;6.10;2.10;;;;;;;15.18;33.15;100296.06;4907413;28;20294;-56
2023/05/02 06:08:11;;;;;;;4.13;1.67;;;;;;;15.06;33.43;100290.28;4916238;28;20324;-57
2023/05/02 06:10:42;;;;;;;6.63;2.10;;;;;;;15.00;33.98;100272.09;4925272;28;20279;-55
2023/05/02 06:13:12;;;;;;;9.77;1.93;;;;;;;15.10;34.53;100262.97;4929818;28;20274;-58
2023/05/02 06:15:43;;;;;;;3.60;1.50;;;;;;;15.05;32.67;100262.25;4949016;28;20807;-57
2023/05/02 06:18:15;;;;;;;9.10;2.20;;;;;;;15.00;33.33;100264.19;4940743;28;20282;-58
2023/05/02 06:20:45;;;;;;;3.23;1.80;;;;;;;15.10;33.53;100268.22;4932380;28;20765;-57
2023/05/02 06:23:16;;;;;;;6.23;2.47;;;;;;;15.19;34.22;100255.66;4931568;28;20336;-57
2023/05/02 06:25:46;;;;;;;5.17;2.13;;;;;;;15.33;34.32;100269.19;4915600;28;20283;-56
2023/05/02 06:28:17;;;;;;;3.27;1.70;;;;;;;15.37;33.53;100276.03;4930987;28;20675;-57
2023/05/02 06:30:47;;;;;;;6.47;1.80;;;;;;;15.20;33.83;100241.56;4931001;28;20768;-57
2023/05/02 06:33:21;;;;;;;4.53;1.80;;;;;;;15.44;33.85;100261.72;4935770;28;20295;-58
2023/05/02 06:35:53;;;;;;;4.03;1.60;;;;;;;15.48;34.50;100265.13;4942970;28;20286;-58
2023/05/02 06:38:24;;;;;;;5.17;1.90;;;;;;;15.49;34.19;100265.06;4931321;28;20286;-57
2023/05/02 06:40:54;;;;;;;6.27;1.90;;;;;;;15.47;33.85;100261.63;4927944;28;20282;-58
2023/05/02 06:43:26;;;;;;;3.13;1.50;;;;;;;15.23;33.56;100226.53;4931289;28;20270;-58
2023/05/02 06:45:57;;;;;;;6.53;1.93;;;;;;;15.43;34.45;100280.25;4915478;28;20297;-59
2023/05/02 06:48:29;;;;;;;3.23;1.60;;;;;;;15.47;34.34;100277.41;4930858;28;21090;-57
2023/05/02 06:51:00;;;;;;;3.40;1.50;;;;;;;15.46;33.67;100270.44;4928110;28;20295;-58
2023/05/02 06:53:30;;;;;;;7.60;2.10;;;;;;;15.35;34.05;100267.34;4936299;28;20702;-57
2023/05/02 06:56:02;;;;;;;9.67;2.20;;;;;;;15.26;34.25;100272.94;4928945;28;20298;-57
2023/05/02 06:58:32;;;;;;;7.13;1.80;;;;;;;14.99;33.85;100253.72;4945913;28;20373;-58
2023/05/02 07:01:03;;;;;;;6.57;2.33;;;;;;;14.96;33.82;100286.25;4950632;28;21058;-56
2023/05/02 07:03:35;;;;;;;4.10;1.87;;;;;;;14.99;34.41;100294.03;4918153;28;20358;-56
2023/05/02 07:06:09;;;;;;;3.30;1.70;;;;;;;15.02;33.58;100295.69;4898954;28;20799;-58
2023/05/02 07:08:39;;;;;;;12.83;2.50;;;;;;;15.08;34.31;100296.34;4912755;28;20276;-57
2023/05/02 07:11:10;;;;;;;2.90;1.63;;;;;;;15.14;33.83;100283.91;4912262;28;20279;-57
2023/05/02 07:13:40;;;;;;;4.97;1.80;;;;;;;15.13;32.95;100276.94;4920571;28;20287;-57
2023/05/02 07:16:11;;;;;;;6.07;2.27;;;;;;;15.12;33.52;100280.47;4909741;28;20272;-58
2023/05/02 07:18:44;;;;;;;2.67;1.53;;;;;;;14.81;33.43;100239.44;4896290;28;20291;-58
2023/05/02 07:21:17;;;;;;;10.07;1.77;;;;;;;15.17;33.70;100276.75;4897847;28;20326;-58
2023/05/02 07:23:47;;;;;;;4.93;1.77;;;;;;;15.22;33.29;100281.84;4896487;28;20283;-58
2023/05/02 07:26:18;;;;;;;10.43;2.03;;;;;;;15.24;33.08;100277.41;4902248;28;20325;-59
2023/05/02 07:28:49;;;;;;;4.73;1.93;;;;;;;15.21;33.39;100269.63;4900909;28;20279;-55
2023/05/02 07:31:20;;;;;;;7.33;1.70;;;;;;;15.04;34.21;100231.56;4881685;28;21149;-57
2023/05/02 07:33:52;;;;;;;6.00;1.87;;;;;;;15.28;33.21;100276.38;4893736;28;20288;-58
2023/05/02 07:36:26;;;;;;;4.43;1.93;;;;;;;15.26;33.49;100276.44;4887747;28;20302;-58
2023/05/02 07:38:57;;;;;;;7.17;1.80;;;;;;;15.24;33.88;100269.50;4896985;28;20299;-59
2023/05/02 07:41:27;;;;;;;4.17;1.80;;;;;;;15.21;34.39;100293.31;4903481;28;20550;-58
2023/05/02 07:43:58;;;;;;;7.87;2.70;;;;;;;15.22;34.77;100287.97;4896176;28;20287;-58
2023/05/02 07:46:28;;;;;;;3.20;2.10;;;;;;;15.15;34.01;100286.50;4927728;28;20290;-57
2023/05/02 07:49:01;;;;;;;7.13;2.60;;;;;;;15.14;34.50;100300.53;4922929;28;20286;-58
2023/05/02 07:51:31;;;;;;;7.93;2.13;;;;;;;14.93;34.54;100275.84;4910805;28;20285;-58
2023/05/02 07:54:02;;;;;;;10.70;2.10;;;;;;;14.99;34.42;100301.06;4923820;28;20309;-57
2023/05/02 07:56:33;;;;;;;6.10;1.93;;;;;;;14.97;35.01;100295.00;4923952;28;20304;-58
2023/05/02 07:59:04;;;;;;;5.10;1.90;;;;;;;14.89;34.65;100282.09;4921516;28;20288;-58
2023/05/02 08:01:37;;;;;;;11.17;1.80;;;;;;;14.88;35.04;100288.28;4923757;28;20285;-58
2023/05/02 08:04:10;;;;;;;7.33;2.40;;;;;;;14.86;35.33;100274.31;4924002;28;20369;-58
2023/05/02 08:06:41;;;;;;;6.00;2.03;;;;;;;14.84;35.65;100276.13;4927121;28;20291;-57
2023/05/02 08:09:11;;;;;;;11.50;2.30;;;;;;;14.73;34.67;100279.13;4921465;28;20315;-57
2023/05/02 08:11:42;;;;;;;4.23;2.20;;;;;;;14.63;34.87;100278.59;4925521;28;20634;-57
2023/05/02 08:14:12;;;;;;;12.10;2.00;;;;;;;14.55;35.62;100277.09;4923706;28;20322;-58
2023/05/02 08:16:43;;;;;;;9.10;2.03;;;;;;;14.45;36.14;100273.88;4922329;28;20293;-57
2023/05/02 08:19:17;;;;;;;6.33;2.30;;;;;;;14.42;35.91;100268.72;4922214;28;20390;-58
2023/05/02 08:21:47;;;;;;;7.77;2.43;;;;;;;14.36;36.64;100268.94;4901469;28;20807;-58
2023/05/02 08:24:18;;;;;;;8.30;3.37;;;;;;;14.28;36.65;100263.03;4922885;28;20340;-57
2023/05/02 08:26:48;;;;;;;10.30;2.25;;;;;;;14.19;36.96;100272.94;4921759;28;20355;-58
2023/05/02 08:29:19;;;;;;;9.37;2.23;;;;;;;14.13;37.19;100278.41;4936190;28;20044;-58
2023/05/02 08:31:49;;;;;;;10.70;3.03;;;;;;;14.07;37.55;100278.56;4938305;28;20289;-58
2023/05/02 08:34:22;;;;;;;9.27;2.35;;;;;;;13.98;37.54;100284.13;4944949;28;20668;-57
2023/05/02 08:36:52;;;;;;;12.17;2.77;;;;;;;13.91;37.77;100282.56;4937376;28;20044;-57
2023/05/02 08:39:26;;;;;;;12.77;2.23;;;;;;;13.84;38.52;100286.28;4919970;28;20291;-57
2023/05/02 08:41:59;;;;;;;13.07;2.55;;;;;;;13.77;38.62;100285.59;4934064;28;20376;-58
2023/05/02 08:44:30;;;;;;;8.05;2.92;;;;;;;13.63;38.96;100291.25;4913441;28;20062;-59
2023/05/02 08:47:02;;;;;;;10.02;2.78;;;;;;;13.41;39.16;100250.78;4934745;28;20045;-59
2023/05/02 08:49:36;;;;;;;11.88;5.00;;;;;;;13.47;39.10;100261.09;4932714;28;20203;-58
2023/05/02 08:52:10;;;;;;;12.10;3.85;;;;;;;13.45;39.54;100276.00;4934441;28;20047;-59
2023/05/02 08:54:41;;;;;;;9.50;2.80;;;;;;;13.33;40.02;100275.47;4914776;28;20062;-57
2023/05/02 08:57:12;;;;;;;11.82;3.40;;;;;;;13.16;40.54;100277.66;4934248;28;20051;-57
2023/05/02 08:59:44;;;;;;;11.18;3.70;;;;;;;12.99;40.37;100277.22;4935516;28;20048;-58
2023/05/02 09:02:24;;;;;;;10.95;3.45;;;;;;;12.92;41.07;100290.50;4938030;28;20112;-57
2023/05/02 09:05:07;;;;;;;10.20;3.10;;;;;;;12.80;41.32;100269.81;4927928;28;20101;-58
2023/05/02 09:07:50;;;;;;;13.25;3.80;;;;;;;12.53;41.57;100260.91;4921346;28;20056;-58
2023/05/02 09:10:44;;;;;;;11.93;5.60;;;;;;;12.43;42.12;100278.63;4929267;28;20393;-58
2023/05/02 09:13:36;;;;;;;6.97;2.95;;;;;;;12.32;42.83;100293.72;4929435;28;20057;-57
2023/05/02 09:16:08;;;;;;;11.65;2.78;;;;;;;12.14;42.78;100289.75;4914901;28;20537;-57
2023/05/02 09:18:44;;;;;;;8.57;2.50;;;;;;;12.05;43.47;100292.56;4929770;28;20061;-58
2023/05/02 09:21:19;;;;;;;6.45;2.85;;;;;;;11.67;43.86;100262.81;4935131;28;20048;-57
2023/05/02 09:23:51;;;;;;;9.88;2.75;;;;;;;11.77;44.19;100300.13;4931979;28;20056;-58
2023/05/02 09:26:25;;;;;;;7.93;2.28;;;;;;;11.57;44.50;100293.53;4935351;28;20386;-57
2023/05/02 09:29:01;;;;;;;8.95;2.65;;;;;;;11.39;44.88;100293.91;4919165;28;20420;-58
2023/05/02 09:31:35;;;;;;;13.40;2.83;;;;;;;11.15;45.18;100298.69;4916174;28;20041;-57
2023/05/02 09:34:13;;;;;;;5.28;2.70;;;;;;;11.28;45.12;100311.53;4906833;28;20651;-58
2023/05/02 09:36:54;;;;;;;9.63;2.80;;;;;;;11.16;45.45;100318.72;4915443;28;20044;-57
2023/05/02 09:39:27;;;;;;;8.65;3.13;;;;;;;11.01;45.91;100305.94;4904229;28;20391;-59
2023/05/02 09:41:58;;;;;;;16.90;4.00;;;;;;;10.88;45.90;100307.00;4922834;28;20063;-58
2023/05/02 09:44:38;;;;;;;8.73;2.80;;;;;;;10.79;46.79;100302.81;4922905;28;20044;-58
2023/05/02 09:47:10;;;;;;;8.23;2.85;;;;;;;10.72;46.68;100296.81;4910531;28;21193;-58
2023/05/02 09:49:45;;;;;;;9.98;2.70;;;;;;;10.65;46.67;100299.56;4915337;28;20131;-58
2023/05/02 09:52:20;;;;;;;5.93;2.67;;;;;;;10.67;46.62;100296.03;4923781;28;20383;-57
2023/05/02 09:54:55;;;;;;;9.23;2.83;;;;;;;10.67;46.51;100303.88;4913572;28;20056;-57
2023/05/02 09:57:41;;;;;;;9.05;2.70;;;;;;;10.70;46.37;100314.28;4919652;28;20174;-57
2023/05/02 10:00:14;;;;;;;8.13;2.70;;;;;;;10.67;46.65;100319.56;4895446;28;20052;-57
2023/05/02 10:02:48;;;;;;;6.15;2.42;;;;;;;10.62;46.53;100321.38;4922928;28;20048;-58
2023/05/02 10:05:24;;;;;;;6.38;2.42;;;;;;;10.57;46.44;100313.59;4924012;28;20048;-58
2023/05/02 10:07:56;;;;;;;7.95;2.38;;;;;;;10.57;46.28;100317.97;4909725;28;20375;-58
2023/05/02 10:10:28;;;;;;;6.18;1.95;;;;;;;10.58;45.71;100324.91;4925511;28;20059;-59
2023/05/02 10:12:59;;;;;;;8.43;2.53;;;;;;;10.58;45.88;100324.91;4923672;28;20113;-58
2023/05/02 10:15:35;;;;;;;4.03;2.40;;;;;;;10.47;46.25;100314.63;4902565;28;20043;-58
2023/05/02 10:18:13;;;;;;;12.05;3.85;;;;;;;10.56;45.92;100321.50;4916473;28;20138;-57
2023/05/02 10:20:55;;;;;;;5.43;2.60;;;;;;;10.35;45.38;100302.63;4909253;28;20052;-58
2023/05/02 10:23:52;;;;;;;4.95;2.50;;;;;;;10.52;45.67;100333.72;4914791;28;20066;-57
2023/05/02 10:26:25;;;;;;;8.77;2.13;;;;;;;10.51;45.69;100341.59;4902196;28;20128;-58
2023/05/02 10:29:17;;;;;;;7.95;2.50;;;;;;;10.50;45.92;100329.41;4926922;28;20187;-58
2023/05/02 10:31:51;;;;;;;5.72;2.20;;;;;;;10.54;46.08;100336.31;4935214;28;20461;-59
2023/05/02 10:34:25;;;;;;;9.57;2.72;;;;;;;10.30;46.17;100308.78;4935093;28;20047;-58
2023/05/02 10:37:00;;;;;;;5.82;2.13;;;;;;;10.44;46.39;100329.50;4945367;28;20079;-58
2023/05/02 10:39:33;;;;;;;7.32;2.80;;;;;;;10.44;46.48;100326.91;4926049;28;20071;-59
2023/05/02 10:42:18;;;;;;;7.57;2.25;;;;;;;10.49;46.71;100330.31;4929153;28;20700;-59
2023/05/02 10:44:50;;;;;;;6.95;2.30;;;;;;;10.48;46.56;100339.00;4935033;28;20138;-58
2023/05/02 10:47:21;;;;;;;8.40;2.92;;;;;;;10.36;47.05;100306.97;4939274;28;20041;-59
2023/05/02 10:49:59;;;;;;;8.35;2.50;;;;;;;10.48;47.30;100334.66;4944999;28;20048;-59
2023/05/02 10:52:42;;;;;;;6.78;2.35;;;;;;;10.33;47.31;100311.34;4929115;28;20462;-58
2023/05/02 10:55:20;;;;;;;7.50;2.70;;;;;;;10.36;47.37;100338.31;4934563;28;20122;-58
2023/05/02 10:58:24;;;;;;;9.82;3.10;;;;;;;10.32;47.88;100359.25;4939669;28;20060;-58
2023/05/02 11:01:44;;;;;;;6.93;2.50;;;;;;;10.27;48.02;100358.44;4931985;28;20433;-58
2023/05/02 11:04:22;;;;;;;7.97;2.50;;;;;;;10.24;48.20;100367.19;4932544;28;20047;-58
2023/05/02 11:07:20;;;;;;;6.68;2.72;;;;;;;10.18;48.73;100356.78;4935281;28;20075;-58
2023/05/02 11:09:52;;;;;;;8.75;2.58;;;;;;;10.10;49.08;100353.44;4908782;28;20479;-59
2023/05/02 11:12:47;;;;;;;9.48;2.60;;;;;;;10.16;49.33;100361.19;4931263;28;20047;-57
2023/05/02 11:15:59;;;;;;;8.13;3.50;;;;;;;10.13;49.62;100348.16;4915468;28;20052;-57
2023/05/02 11:22:35;;;;;;;8.85;3.08;;;;;;;10.18;50.49;100341.13;4888552;28;20056;-59
2023/05/02 11:28:54;;;;;;;9.70;3.75;;;;;;;10.20;50.19;100349.81;4788275;28;20062;-60
2023/05/02 11:31:55;;;;;;;9.30;3.17;;;;;;;10.19;50.47;100348.09;4808442;28;20241;-59
2023/05/02 11:34:28;;;;;;;6.15;3.20;;;;;;;10.16;50.63;100342.91;4808041;28;20111;-58
2023/05/02 11:37:00;;;;;;;6.72;3.08;;;;;;;10.02;50.71;100326.56;4808872;28;20556;-59
2023/05/02 11:39:31;;;;;;;9.90;3.53;;;;;;;10.17;51.00;100328.97;4801984;28;20068;-59
2023/05/02 11:42:03;;;;;;;13.95;3.53;;;;;;;10.23;51.01;100322.78;4808250;28;20126;-59
2023/05/02 11:44:53;;;;;;;9.70;3.47;;;;;;;10.24;51.18;100338.44;4808304;28;20059;-59
2023/05/02 11:47:25;;;;;;;6.45;2.88;;;;;;;10.14;51.37;100302.91;4798519;28;20051;-59
2023/05/02 11:49:59;;;;;;;9.57;3.42;;;;;;;10.39;51.24;100344.38;4807594;28;20055;-59
2023/05/02 11:52:38;;;;;;;11.95;3.38;;;;;;;10.41;51.19;100334.75;4807254;28;20064;-59
2023/05/02 11:55:11;;;;;;;9.95;3.42;;;;;;;10.44;51.35;100334.72;4808621;28;20082;-59
2023/05/02 11:57:45;;;;;;;11.48;3.60;;;;;;;10.44;51.41;100327.75;4798820;28;20093;-59
2023/05/02 12:00:19;;;;;;;9.48;3.45;;;;;;;10.46;51.44;100331.22;4806634;28;20062;-58
2023/05/02 12:02:57;;;;;;;9.77;3.20;;;;;;;10.48;51.50;100328.56;4813801;28;20770;-57